Raymond, Ohio
Current Conditions -  °F | °C
As of 3:53 PM on Thursday 23 Oct 2014 (Local Time) from KMRT Reporting Station
Clear Clear  
Wind Chill: 14°   Ceiling: Unl
Heat Index: 14°   Visibility: 10mi
Dew Point:   Wind: 5mph
Humidity: 52%   Direction: 10°N
Pressure: 30.15"   Gusts: NA
Location:  40.33°N, 83.47°W
Report Text: KMRT 231953Z AUTO 01004KT 10SM CLR 14/04 A3015 RMK AO2 T01400044
Loading
Personal Weather Stations






























Interactive Weather Map
Tropical Storm Tracking
New forecast layout! Learn more

10-Day Weather Forecast

Advertisements
Track Severe Weather on mobile